Terminal Aerodrome Forecast
Issued by NWS

Home | Current Version | Previous Version | Text Only | Print | Product List | Glossary On
Versions: 1 2 3 4 5 6 7 8 9 10 11 12 13 14 15
000
FTUS42 KMHX 011125
TAFISO
TAF
KISO 011125Z 0112/0212 01006KT P6SM VCSH SCT010 BKN015 OVC050
     FM012300 23005KT 3SM -RA OVC010
     FM020700 24006KT P6SM OVC030
      AMD LTD TO CLD VIS AND WIND=

USA.gov is the U.S. government's official web portal to all federal, state and local government web resources and services.